createdAt,value
2023-02-21T00:01:05.899Z,64.10
2023-02-21T00:03:32.368Z,64.20
2023-02-21T00:05:58.865Z,64.20
2023-02-21T00:08:25.358Z,64.20
2023-02-21T00:10:51.851Z,64.20
2023-02-21T00:13:18.335Z,64.10
2023-02-21T00:15:44.811Z,64.10
2023-02-21T00:18:11.286Z,64.10
2023-02-21T00:20:37.784Z,64.10
2023-02-21T00:23:04.267Z,64.10
2023-02-21T00:25:30.760Z,64.10
2023-02-21T00:27:57.235Z,64.10
2023-02-21T00:30:23.839Z,64.10
2023-02-21T00:32:50.477Z,64.10
2023-02-21T00:35:17.086Z,64.10
2023-02-21T00:37:43.732Z,64.10
2023-02-21T00:40:10.207Z,64.10
2023-02-21T00:42:38.427Z,64.10
2023-02-21T00:45:04.891Z,64.10
2023-02-21T00:47:31.432Z,64.10
2023-02-21T00:49:57.904Z,64.10
2023-02-21T00:52:24.379Z,64.10
2023-02-21T00:54:50.915Z,64.10
2023-02-21T00:57:17.395Z,64.10
2023-02-21T00:59:43.881Z,64.10
2023-02-21T01:02:10.371Z,64.10
2023-02-21T01:04:36.917Z,64.20
2023-02-21T01:07:03.422Z,64.30
2023-02-21T01:09:29.884Z,64.20
2023-02-21T01:11:56.365Z,64.30
2023-02-21T01:14:22.862Z,64.30
2023-02-21T01:16:49.335Z,64.30
2023-02-21T01:19:16.147Z,64.20
2023-02-21T01:21:42.643Z,64.20
2023-02-21T01:24:09.099Z,64.20
2023-02-21T01:26:35.539Z,64.20
2023-02-21T01:29:02.017Z,64.20
2023-02-21T01:31:28.560Z,64.20
2023-02-21T01:33:55.072Z,64.20
2023-02-21T01:36:26.384Z,64.20
2023-02-21T01:38:52.849Z,64.10
2023-02-21T01:41:19.359Z,64.10
2023-02-21T01:43:45.843Z,64.10
2023-02-21T01:46:12.371Z,64.10
2023-02-21T01:48:38.849Z,64.10
2023-02-21T01:51:08.407Z,64.10
2023-02-21T01:53:34.885Z,64.30
2023-02-21T01:56:01.361Z,64.30
2023-02-21T01:58:27.844Z,64.10
2023-02-21T02:00:54.354Z,64.20
2023-02-21T02:03:20.828Z,64.20
2023-02-21T02:05:47.326Z,64.20
2023-02-21T02:08:13.812Z,64.20
2023-02-21T02:10:40.300Z,64.30
2023-02-21T02:13:06.777Z,64.20
2023-02-21T02:15:33.282Z,64.20
2023-02-21T02:17:59.748Z,64.20
2023-02-21T02:20:26.228Z,64.30
2023-02-21T02:22:52.712Z,64.30
2023-02-21T02:25:19.174Z,64.40
2023-02-21T02:27:45.662Z,64.30
2023-02-21T02:30:12.178Z,64.30
2023-02-21T02:32:38.660Z,64.30
2023-02-21T02:35:05.109Z,64.40
2023-02-21T02:37:31.592Z,64.30
2023-02-21T02:39:58.075Z,64.40
2023-02-21T02:42:24.560Z,64.30
2023-02-21T02:44:51.029Z,64.30
2023-02-21T02:47:17.512Z,64.30
2023-02-21T02:49:44.407Z,64.30
2023-02-21T02:52:10.884Z,64.30
2023-02-21T02:54:37.372Z,64.30
2023-02-21T02:57:03.853Z,64.30
2023-02-21T02:59:30.315Z,64.30
2023-02-21T03:01:56.830Z,64.30
2023-02-21T03:04:23.302Z,64.30
2023-02-21T03:06:49.785Z,64.30
2023-02-21T03:09:16.278Z,64.30
2023-02-21T03:11:42.757Z,64.30
2023-02-21T03:14:09.250Z,64.30
2023-02-21T03:16:35.721Z,64.40
2023-02-21T03:19:02.206Z,64.40
2023-02-21T03:21:28.712Z,64.40
2023-02-21T03:23:55.186Z,64.40
2023-02-21T03:26:21.698Z,64.30
2023-02-21T03:28:48.161Z,64.30
2023-02-21T03:31:14.976Z,64.30
2023-02-21T03:33:41.657Z,64.30
2023-02-21T03:36:08.162Z,64.40
2023-02-21T03:38:34.642Z,64.30
2023-02-21T03:41:01.108Z,64.40
2023-02-21T03:43:27.577Z,64.40
2023-02-21T03:45:54.049Z,64.40
2023-02-21T03:48:31.425Z,64.40
2023-02-21T03:50:58.589Z,64.40
2023-02-21T03:53:25.074Z,64.50
2023-02-21T03:55:51.558Z,64.50
2023-02-21T03:58:18.035Z,64.40
2023-02-21T04:00:44.586Z,64.40
2023-02-21T04:03:11.101Z,64.40
2023-02-21T04:05:37.593Z,64.40
2023-02-21T04:08:04.069Z,64.40
2023-02-21T04:10:32.485Z,64.40
2023-02-21T04:13:00.390Z,64.40
2023-02-21T04:15:26.845Z,64.40
2023-02-21T04:17:53.322Z,64.40
2023-02-21T04:20:19.830Z,64.40
2023-02-21T04:22:54.499Z,64.50
2023-02-21T04:25:28.150Z,64.50
2023-02-21T04:27:56.524Z,64.50
2023-02-21T04:30:23.026Z,64.40
2023-02-21T04:32:49.548Z,64.40
2023-02-21T04:35:16.082Z,64.50
2023-02-21T04:37:42.584Z,64.50
2023-02-21T04:40:09.048Z,64.50
2023-02-21T04:42:35.588Z,64.50
2023-02-21T04:45:02.058Z,64.50
2023-02-21T04:47:28.565Z,64.40
2023-02-21T04:49:55.054Z,64.50
2023-02-21T04:52:21.525Z,64.50
2023-02-21T04:54:48.007Z,64.50
2023-02-21T04:57:14.484Z,64.50
2023-02-21T04:59:41.050Z,64.50
2023-02-21T05:02:07.543Z,64.40
2023-02-21T05:04:34.063Z,64.50
2023-02-21T05:07:00.565Z,64.50
2023-02-21T05:09:27.077Z,64.50
2023-02-21T05:11:53.594Z,64.50
2023-02-21T05:14:20.064Z,64.50
2023-02-21T05:16:46.659Z,64.50
2023-02-21T05:19:13.145Z,64.60
2023-02-21T05:21:39.619Z,64.50
2023-02-21T05:24:06.090Z,64.60
2023-02-21T05:26:32.565Z,64.60
2023-02-21T05:28:59.041Z,64.60
2023-02-21T05:31:25.547Z,64.60
2023-02-21T05:33:52.103Z,64.50
2023-02-21T05:36:18.596Z,64.50
2023-02-21T05:38:45.067Z,64.50
2023-02-21T05:41:11.540Z,64.50
2023-02-21T05:43:38.017Z,64.50
2023-02-21T05:46:04.549Z,64.50
2023-02-21T05:48:31.050Z,64.60
2023-02-21T05:50:57.549Z,64.50
2023-02-21T05:53:24.041Z,64.60
2023-02-21T05:55:50.535Z,64.50
2023-02-21T05:58:16.994Z,64.50
2023-02-21T06:00:43.473Z,64.50
2023-02-21T06:03:09.993Z,64.50
2023-02-21T06:05:36.489Z,64.50
2023-02-21T06:08:02.957Z,64.50
2023-02-21T06:10:29.419Z,64.50
2023-02-21T06:12:55.889Z,64.50
2023-02-21T06:15:22.399Z,64.50
2023-02-21T06:17:48.852Z,64.50
2023-02-21T06:20:15.349Z,64.40
2023-02-21T06:22:41.833Z,64.50
2023-02-21T06:25:08.325Z,64.50
2023-02-21T06:27:34.805Z,64.50
2023-02-21T06:30:01.321Z,64.50
2023-02-21T06:32:27.834Z,64.50
2023-02-21T06:34:54.327Z,64.60
2023-02-21T06:37:20.788Z,64.50
2023-02-21T06:39:47.292Z,64.50
2023-02-21T06:42:13.752Z,64.50
2023-02-21T06:44:40.245Z,64.60
2023-02-21T06:47:06.757Z,64.50
2023-02-21T06:49:33.244Z,64.50
2023-02-21T06:51:59.717Z,64.50
2023-02-21T06:54:26.192Z,64.60
2023-02-21T06:56:52.665Z,64.50
2023-02-21T06:59:19.115Z,64.50
2023-02-21T07:01:50.684Z,64.60
2023-02-21T07:04:17.183Z,64.50
2023-02-21T07:06:43.683Z,64.50
2023-02-21T07:09:10.142Z,64.50
2023-02-21T07:11:36.618Z,64.60
2023-02-21T07:14:03.095Z,64.60
2023-02-21T07:16:29.574Z,64.60
2023-02-21T07:18:56.060Z,64.60
2023-02-21T07:21:22.543Z,64.60
2023-02-21T07:23:49.017Z,64.50
2023-02-21T07:26:20.657Z,64.60
2023-02-21T07:28:47.162Z,64.60
2023-02-21T07:31:14.352Z,64.60
2023-02-21T07:33:41.295Z,64.60
2023-02-21T07:36:07.770Z,64.60
2023-02-21T07:38:34.256Z,64.60
2023-02-21T07:41:00.744Z,64.60
2023-02-21T07:43:27.254Z,64.60
2023-02-21T07:45:53.712Z,64.60
2023-02-21T07:48:20.190Z,64.60
2023-02-21T07:50:46.667Z,64.60
2023-02-21T07:53:13.134Z,64.70
2023-02-21T07:55:39.631Z,64.60
2023-02-21T07:58:08.664Z,64.60
2023-02-21T08:00:40.508Z,64.60
2023-02-21T08:03:07.181Z,64.60
2023-02-21T08:05:33.665Z,64.60
2023-02-21T08:08:00.211Z,64.60
2023-02-21T08:10:26.731Z,64.60
2023-02-21T08:12:53.212Z,64.60
2023-02-21T08:15:19.730Z,64.60
2023-02-21T08:17:46.204Z,64.60
2023-02-21T08:20:12.685Z,64.70
2023-02-21T08:22:39.158Z,64.70
2023-02-21T08:25:05.625Z,64.70
2023-02-21T08:27:32.098Z,64.70
2023-02-21T08:29:58.550Z,64.70
2023-02-21T08:32:25.114Z,64.80
2023-02-21T08:34:51.615Z,64.70
2023-02-21T08:37:18.098Z,64.70
2023-02-21T08:39:44.596Z,64.70
2023-02-21T08:42:14.723Z,64.70
2023-02-21T08:44:41.210Z,64.70
2023-02-21T08:47:07.714Z,64.70
2023-02-21T08:49:34.191Z,64.70
2023-02-21T08:52:00.673Z,64.70
2023-02-21T08:54:27.147Z,64.70
2023-02-21T08:56:53.602Z,64.70
2023-02-21T08:59:23.233Z,64.70
2023-02-21T09:01:49.824Z,64.70
2023-02-21T09:04:16.319Z,64.70
2023-02-21T09:06:42.802Z,64.70
2023-02-21T09:09:09.271Z,64.70
2023-02-21T09:11:35.728Z,64.70
2023-02-21T09:14:02.206Z,64.70
2023-02-21T09:16:28.749Z,64.70
2023-02-21T09:18:55.235Z,64.70
2023-02-21T09:21:21.722Z,64.70
2023-02-21T09:23:48.201Z,64.70
2023-02-21T09:26:14.730Z,64.70
2023-02-21T09:28:41.231Z,64.60
2023-02-21T09:31:07.731Z,64.60
2023-02-21T09:33:34.190Z,64.50
2023-02-21T09:36:00.671Z,64.70
2023-02-21T09:38:27.151Z,64.80
2023-02-21T09:40:53.636Z,64.70
2023-02-21T09:43:20.122Z,64.80
2023-02-21T09:45:46.613Z,64.70
2023-02-21T09:48:13.086Z,64.70
2023-02-21T09:50:39.561Z,64.70
2023-02-21T09:53:08.780Z,64.70
2023-02-21T09:55:35.261Z,64.70
2023-02-21T09:58:02.804Z,64.70
2023-02-21T10:00:29.271Z,64.70
2023-02-21T10:02:55.738Z,64.70
2023-02-21T10:05:22.236Z,64.70
2023-02-21T10:07:48.736Z,64.70
2023-02-21T10:10:15.207Z,64.70
2023-02-21T10:12:41.696Z,64.70
2023-02-21T10:15:08.175Z,64.70
2023-02-21T10:17:34.663Z,64.70
2023-02-21T10:20:01.141Z,64.70
2023-02-21T10:22:27.677Z,64.70
2023-02-21T10:24:54.218Z,64.70
2023-02-21T10:27:20.714Z,64.80
2023-02-21T10:29:47.198Z,64.70
2023-02-21T10:32:13.938Z,64.80
2023-02-21T10:34:40.450Z,64.80
2023-02-21T10:37:06.941Z,64.80
2023-02-21T10:39:33.436Z,64.80
2023-02-21T10:41:59.898Z,64.80
2023-02-21T10:44:26.826Z,64.70
2023-02-21T10:46:53.288Z,64.70
2023-02-21T10:49:19.766Z,64.80
2023-02-21T10:51:46.231Z,64.80
2023-02-21T10:54:12.705Z,64.80
2023-02-21T10:56:39.184Z,64.70
2023-02-21T10:59:05.653Z,64.70
2023-02-21T11:01:32.171Z,64.80
2023-02-21T11:03:58.652Z,64.80
2023-02-21T11:06:27.708Z,64.80
2023-02-21T11:08:54.420Z,64.90
2023-02-21T11:11:20.878Z,64.80
2023-02-21T11:13:50.838Z,64.90
2023-02-21T11:16:17.327Z,64.80
2023-02-21T11:18:43.821Z,64.80
2023-02-21T11:21:10.303Z,64.80
2023-02-21T11:23:36.782Z,64.80
2023-02-21T11:26:03.252Z,64.80
2023-02-21T11:28:29.743Z,64.90
2023-02-21T11:30:56.257Z,64.90
2023-02-21T11:33:22.764Z,64.90
2023-02-21T11:35:49.237Z,64.90
2023-02-21T11:38:15.711Z,64.80
2023-02-21T11:40:42.205Z,64.80
2023-02-21T11:43:08.674Z,64.90
2023-02-21T11:45:35.161Z,64.70
2023-02-21T11:48:01.619Z,64.90
2023-02-21T11:50:28.089Z,65.00
2023-02-21T11:52:54.566Z,64.90
2023-02-21T11:55:26.894Z,65.00
2023-02-21T11:57:53.362Z,65.00
2023-02-21T12:00:19.833Z,64.90
2023-02-21T12:02:46.336Z,64.80
2023-02-21T12:05:12.844Z,64.90
2023-02-21T12:07:39.326Z,64.90
2023-02-21T12:10:05.812Z,64.90
2023-02-21T12:12:32.286Z,65.00
2023-02-21T12:14:58.778Z,65.10
2023-02-21T12:17:26.868Z,65.00
2023-02-21T12:19:53.354Z,65.00
2023-02-21T12:22:19.839Z,64.90
2023-02-21T12:24:46.329Z,65.00
2023-02-21T12:27:12.816Z,65.00
2023-02-21T12:29:39.289Z,65.00
2023-02-21T12:32:09.135Z,65.00
2023-02-21T12:34:35.678Z,65.00
2023-02-21T12:37:02.148Z,65.00
2023-02-21T12:39:28.654Z,65.10
2023-02-21T12:41:55.113Z,65.00
2023-02-21T12:44:21.613Z,65.00
2023-02-21T12:46:48.145Z,65.00
2023-02-21T12:49:14.646Z,65.10
2023-02-21T12:51:41.109Z,65.00
2023-02-21T12:54:07.593Z,65.00
2023-02-21T12:56:34.068Z,65.10
2023-02-21T12:59:00.526Z,65.10
2023-02-21T13:01:27.046Z,65.00
2023-02-21T13:03:53.548Z,65.10
2023-02-21T13:06:20.016Z,65.10
2023-02-21T13:08:46.594Z,65.10
2023-02-21T13:11:13.478Z,65.10
2023-02-21T13:13:40.103Z,65.10
2023-02-21T13:16:06.643Z,65.10
2023-02-21T13:18:33.117Z,65.10
2023-02-21T13:20:59.591Z,65.10
2023-02-21T13:23:26.068Z,65.10
2023-02-21T13:25:52.530Z,65.10
2023-02-21T13:28:18.992Z,65.20
2023-02-21T13:30:45.606Z,65.20
2023-02-21T13:33:12.129Z,65.20
2023-02-21T13:35:38.598Z,65.20
2023-02-21T13:38:05.094Z,65.10
2023-02-21T13:40:33.097Z,65.10
2023-02-21T13:42:59.585Z,65.20
2023-02-21T13:45:26.083Z,65.20
2023-02-21T13:47:57.173Z,65.20
2023-02-21T13:50:23.657Z,65.10
2023-02-21T13:52:50.109Z,65.20
2023-02-21T13:55:16.621Z,65.20
2023-02-21T13:57:43.081Z,65.30
2023-02-21T14:00:09.587Z,65.40
2023-02-21T14:02:36.066Z,65.40
2023-02-21T14:05:02.565Z,65.40
2023-02-21T14:07:29.051Z,65.30
2023-02-21T14:09:55.524Z,65.40
2023-02-21T14:12:27.028Z,65.30
2023-02-21T14:14:53.506Z,65.30
2023-02-21T14:17:21.097Z,65.30
2023-02-21T14:19:47.638Z,65.30
2023-02-21T14:22:14.161Z,65.30
2023-02-21T14:24:40.642Z,65.30
2023-02-21T14:27:07.114Z,65.30
2023-02-21T14:29:33.655Z,65.30
2023-02-21T14:32:00.250Z,65.40
2023-02-21T14:34:26.767Z,65.40
2023-02-21T14:36:53.247Z,65.20
2023-02-21T14:39:19.721Z,65.30
2023-02-21T14:41:46.225Z,65.30
2023-02-21T14:44:12.700Z,65.30
2023-02-21T14:46:39.188Z,65.20
2023-02-21T14:49:05.667Z,65.30
2023-02-21T14:51:32.136Z,65.40
2023-02-21T14:53:58.597Z,65.40
2023-02-21T14:56:25.102Z,65.40
2023-02-21T14:58:51.590Z,65.50
2023-02-21T15:01:18.379Z,65.50
2023-02-21T15:03:45.013Z,65.40
2023-02-21T15:06:11.489Z,65.30
2023-02-21T15:08:37.977Z,65.50
2023-02-21T15:11:04.447Z,65.50
2023-02-21T15:13:30.915Z,65.50
2023-02-21T15:15:57.419Z,65.40
2023-02-21T15:18:23.905Z,65.30
2023-02-21T15:20:50.408Z,65.40
2023-02-21T15:23:16.894Z,65.50
2023-02-21T15:25:43.364Z,65.40
2023-02-21T15:28:09.859Z,65.50
2023-02-21T15:30:39.180Z,65.50
2023-02-21T15:33:05.732Z,65.50
2023-02-21T15:35:32.254Z,65.50
2023-02-21T15:37:58.738Z,65.50
2023-02-21T15:40:25.234Z,65.50
2023-02-21T15:42:51.715Z,65.50
2023-02-21T15:45:18.212Z,65.60
2023-02-21T15:47:44.691Z,65.50
2023-02-21T15:50:11.167Z,65.50
2023-02-21T15:52:37.651Z,65.40
2023-02-21T15:55:04.133Z,65.50
2023-02-21T15:57:30.625Z,65.50
2023-02-21T15:59:57.097Z,65.60
2023-02-21T16:02:23.601Z,65.60
2023-02-21T16:04:50.086Z,65.50
2023-02-21T16:07:21.087Z,65.50
2023-02-21T16:09:47.595Z,65.50
2023-02-21T16:12:14.102Z,65.50
2023-02-21T16:14:40.587Z,65.50
2023-02-21T16:17:07.080Z,65.50
2023-02-21T16:19:33.573Z,65.50
2023-02-21T16:22:03.090Z,65.50
2023-02-21T16:24:29.561Z,65.60
2023-02-21T16:26:56.035Z,65.60
2023-02-21T16:29:22.553Z,65.60
2023-02-21T16:31:49.072Z,65.60
2023-02-21T16:34:15.592Z,65.70
2023-02-21T16:36:42.094Z,65.60
2023-02-21T16:39:08.574Z,65.60
2023-02-21T16:41:39.113Z,65.60
2023-02-21T16:44:05.583Z,65.60
2023-02-21T16:46:32.089Z,65.60
2023-02-21T16:48:58.581Z,65.60
2023-02-21T16:51:25.056Z,65.70
2023-02-21T16:53:51.532Z,65.70
2023-02-21T16:56:18.032Z,65.70
2023-02-21T16:58:44.501Z,65.70
2023-02-21T17:01:11.022Z,65.60
2023-02-21T17:03:37.522Z,65.60
2023-02-21T17:06:04.006Z,65.60
2023-02-21T17:08:30.462Z,65.60
2023-02-21T17:10:56.953Z,65.60
2023-02-21T17:13:23.436Z,65.60
2023-02-21T17:15:49.982Z,65.70
2023-02-21T17:18:16.487Z,65.60
2023-02-21T17:20:42.989Z,65.60
2023-02-21T17:23:09.458Z,65.60
2023-02-21T17:25:35.954Z,65.70
2023-02-21T17:28:02.429Z,65.60
2023-02-21T17:30:28.955Z,65.60
2023-02-21T17:32:55.468Z,65.70
2023-02-21T17:35:21.969Z,65.70
2023-02-21T17:37:48.449Z,65.70
2023-02-21T17:40:14.927Z,65.80
2023-02-21T17:42:41.418Z,65.70
2023-02-21T17:45:07.991Z,65.70
2023-02-21T17:47:34.512Z,65.70
2023-02-21T17:50:02.963Z,65.70
2023-02-21T17:52:29.687Z,65.70
2023-02-21T17:54:56.168Z,65.60
2023-02-21T17:57:22.663Z,65.70
2023-02-21T17:59:49.131Z,65.80
2023-02-21T18:02:15.599Z,65.70
2023-02-21T18:04:42.079Z,65.70
2023-02-21T18:07:11.692Z,65.70
2023-02-21T18:09:38.340Z,65.70
2023-02-21T18:12:04.808Z,65.70
2023-02-21T18:14:31.288Z,65.70
2023-02-21T18:16:57.780Z,65.70
2023-02-21T18:19:24.251Z,65.80
2023-02-21T18:21:50.742Z,65.70
2023-02-21T18:24:17.224Z,65.70
2023-02-21T18:26:43.787Z,65.80
2023-02-21T18:29:10.264Z,65.80
2023-02-21T18:31:36.753Z,65.80
2023-02-21T18:34:03.257Z,65.80
2023-02-21T18:36:29.744Z,65.70
2023-02-21T18:38:56.203Z,65.80
2023-02-21T18:41:22.682Z,65.70
2023-02-21T18:43:49.159Z,65.60
2023-02-21T18:46:21.255Z,65.50
2023-02-21T18:48:47.773Z,65.60
2023-02-21T18:51:14.427Z,65.70
2023-02-21T18:53:40.971Z,65.70
2023-02-21T18:56:07.449Z,65.70
2023-02-21T18:58:33.916Z,65.70
2023-02-21T19:01:00.412Z,65.70
2023-02-21T19:03:26.924Z,65.70
2023-02-21T19:05:53.413Z,65.70
2023-02-21T19:08:19.895Z,65.70
2023-02-21T19:10:46.384Z,65.70
2023-02-21T19:13:12.870Z,65.60
2023-02-21T19:15:39.341Z,65.70
2023-02-21T19:18:05.790Z,65.70
2023-02-21T19:20:32.267Z,65.70
2023-02-21T19:22:58.757Z,65.70
2023-02-21T19:25:25.245Z,65.80
2023-02-21T19:27:51.724Z,65.70
2023-02-21T19:30:18.208Z,65.70
2023-02-21T19:32:44.708Z,65.80
2023-02-21T19:35:11.164Z,65.80
2023-02-21T19:37:37.621Z,65.80
2023-02-21T19:40:04.854Z,65.80
2023-02-21T19:42:31.871Z,65.80
2023-02-21T19:44:58.350Z,65.90
2023-02-21T19:47:24.820Z,65.80
2023-02-21T19:49:51.306Z,65.80
2023-02-21T19:52:17.809Z,65.80
2023-02-21T19:54:44.291Z,65.70
2023-02-21T19:57:10.780Z,65.70
2023-02-21T19:59:37.256Z,65.70
2023-02-21T20:02:03.748Z,65.80
2023-02-21T20:04:30.251Z,65.80
2023-02-21T20:06:56.751Z,65.80
2023-02-21T20:09:23.214Z,65.80
2023-02-21T20:11:51.300Z,65.80
2023-02-21T20:14:17.782Z,65.90
2023-02-21T20:16:44.314Z,65.80
2023-02-21T20:19:15.319Z,65.80
2023-02-21T20:21:41.831Z,65.80
2023-02-21T20:24:08.288Z,65.80
2023-02-21T20:26:34.789Z,65.80
2023-02-21T20:29:01.259Z,65.80
2023-02-21T20:31:27.785Z,65.80
2023-02-21T20:33:54.263Z,65.80
2023-02-21T20:36:20.768Z,65.80
2023-02-21T20:38:47.257Z,65.70
2023-02-21T20:41:14.051Z,65.80
2023-02-21T20:43:40.740Z,65.80
2023-02-21T20:46:07.625Z,65.70
2023-02-21T20:48:34.773Z,65.80
2023-02-21T20:51:01.264Z,65.70
2023-02-21T20:53:27.735Z,65.70
2023-02-21T20:55:54.226Z,65.70
2023-02-21T20:58:20.715Z,65.70
2023-02-21T21:00:47.204Z,65.70
2023-02-21T21:03:13.685Z,65.70
2023-02-21T21:05:40.180Z,65.70
2023-02-21T21:08:06.662Z,65.80
2023-02-21T21:10:33.136Z,65.80
2023-02-21T21:12:59.640Z,65.70
2023-02-21T21:15:33.442Z,65.60
2023-02-21T21:17:59.917Z,65.80
2023-02-21T21:20:26.377Z,65.80
2023-02-21T21:22:57.351Z,65.80
2023-02-21T21:25:23.845Z,65.70
2023-02-21T21:27:50.342Z,65.80
2023-02-21T21:30:16.832Z,65.70
2023-02-21T21:32:43.312Z,65.80
2023-02-21T21:35:09.780Z,65.80
2023-02-21T21:37:36.251Z,65.80
2023-02-21T21:40:02.734Z,65.70
2023-02-21T21:42:29.227Z,65.70
2023-02-21T21:44:55.725Z,65.70
2023-02-21T21:47:22.212Z,65.70
2023-02-21T21:49:48.696Z,65.70
2023-02-21T21:52:15.144Z,65.70
2023-02-21T21:54:41.591Z,65.60
2023-02-21T21:57:08.093Z,65.70
2023-02-21T21:59:34.549Z,65.60
2023-02-21T22:02:01.046Z,65.70
2023-02-21T22:04:27.525Z,65.70
2023-02-21T22:06:54.028Z,65.70
2023-02-21T22:09:20.534Z,65.80
2023-02-21T22:11:47.042Z,65.70
2023-02-21T22:14:13.515Z,65.70
2023-02-21T22:16:40.011Z,65.60
2023-02-21T22:19:06.435Z,65.60
2023-02-21T22:21:32.907Z,65.60
2023-02-21T22:23:59.386Z,65.60
2023-02-21T22:26:25.883Z,65.60
2023-02-21T22:28:52.368Z,65.60
2023-02-21T22:31:19.120Z,65.60
2023-02-21T22:33:45.802Z,65.50
2023-02-21T22:36:12.252Z,65.50
2023-02-21T22:38:38.745Z,65.60
2023-02-21T22:41:05.239Z,65.50
2023-02-21T22:43:31.698Z,65.60
2023-02-21T22:45:58.157Z,65.60
2023-02-21T22:48:24.648Z,65.60
2023-02-21T22:50:51.098Z,65.60
2023-02-21T22:53:17.590Z,65.60
2023-02-21T22:55:45.138Z,65.60
2023-02-21T22:58:11.621Z,65.60
2023-02-21T23:00:38.115Z,65.50
2023-02-21T23:03:09.439Z,65.60
2023-02-21T23:05:35.897Z,65.60
2023-02-21T23:08:02.390Z,65.50
2023-02-21T23:10:28.864Z,65.50
2023-02-21T23:12:55.369Z,65.50
2023-02-21T23:15:21.898Z,65.40
2023-02-21T23:17:48.355Z,65.50
2023-02-21T23:20:14.836Z,65.60
2023-02-21T23:22:41.310Z,65.50
2023-02-21T23:25:07.804Z,65.50
2023-02-21T23:27:34.281Z,65.50
2023-02-21T23:30:00.936Z,65.60
2023-02-21T23:32:27.487Z,65.60
2023-02-21T23:34:54.112Z,65.50
2023-02-21T23:37:20.581Z,65.60
2023-02-21T23:39:47.090Z,65.50
2023-02-21T23:42:13.562Z,65.50
2023-02-21T23:44:40.050Z,65.40
2023-02-21T23:47:06.523Z,65.40
2023-02-21T23:49:33.021Z,65.50
2023-02-21T23:51:59.495Z,65.60
2023-02-21T23:54:25.976Z,65.50
2023-02-21T23:56:52.454Z,65.50
2023-02-21T23:59:18.918Z,65.40
